Time;durP1;ratioP1;P1;durP2;ratioP2;P2;SDS_P1;SDS_P2;PMS_P1;PMS_P2;Temp;Humidity;BMP_temperature;BMP_pressure;BME280_temperature;BME280_humidity;BME280_pressure;Samples;Min_cycle;Max_cycle;Signal;HPM_P1;HPM_P2
2021/08/19 00:00:48;;;;;;;2.40;2.30;;;;;;;;;;4985090;28;25042;-60
2021/08/19 00:03:14;;;;;;;2.50;2.40;;;;;;;;;;4988641;28;24413;-60
2021/08/19 00:05:39;;;;;;;2.20;2.10;;;;;;;;;;4988140;28;24412;-59
2021/08/19 00:08:04;;;;;;;2.50;2.40;;;;;;;;;;4982693;28;24408;-60
2021/08/19 00:10:29;;;;;;;2.80;2.60;;;;;;;;;;4982651;28;24432;-60
2021/08/19 00:12:55;;;;;;;3.00;2.80;;;;;;;;;;4982976;28;24722;-60
2021/08/19 00:15:20;;;;;;;2.77;2.57;;;;;;;;;;4984584;28;25009;-59
2021/08/19 00:17:45;;;;;;;3.10;2.90;;;;;;;;;;4988075;28;24400;-59
2021/08/19 00:20:10;;;;;;;3.20;3.00;;;;;;;;;;4986261;28;24424;-59
2021/08/19 00:22:36;;;;;;;3.03;2.83;;;;;;;;;;4982800;28;24958;-60
2021/08/19 00:25:02;;;;;;;2.88;2.67;;;;;;;;;;4982584;28;24520;-60
2021/08/19 00:27:27;;;;;;;2.83;2.63;;;;;;;;;;4984542;28;24416;-60
2021/08/19 00:29:52;;;;;;;3.00;2.80;;;;;;;;;;4986390;28;24756;-60
2021/08/19 00:32:17;;;;;;;3.05;2.85;;;;;;;;;;4986299;28;24461;-60
2021/08/19 00:34:42;;;;;;;3.40;3.20;;;;;;;;;;4984325;28;24408;-60
2021/08/19 00:37:08;;;;;;;2.90;2.70;;;;;;;;;;4982477;28;24440;-60
2021/08/19 00:39:34;;;;;;;3.60;3.30;;;;;;;;;;4982300;28;24411;-60
2021/08/19 00:41:59;;;;;;;3.43;3.23;;;;;;;;;;4984330;28;24962;-59
2021/08/19 00:44:24;;;;;;;3.23;3.03;;;;;;;;;;4988119;28;24389;-60
2021/08/19 00:46:49;;;;;;;2.63;2.53;;;;;;;;;;4984671;28;24576;-60
2021/08/19 00:49:14;;;;;;;3.50;3.30;;;;;;;;;;4982919;28;24404;-59
2021/08/19 00:51:40;;;;;;;3.13;2.93;;;;;;;;;;4983516;28;24512;-59
2021/08/19 00:54:06;;;;;;;3.47;3.28;;;;;;;;;;4982174;28;25025;-59
2021/08/19 00:56:32;;;;;;;3.30;3.10;;;;;;;;;;4987233;28;24444;-58
2021/08/19 00:58:57;;;;;;;3.30;3.10;;;;;;;;;;4985716;28;24405;-58
2021/08/19 01:01:23;;;;;;;2.80;2.70;;;;;;;;;;4982321;28;24487;-58
2021/08/19 01:03:49;;;;;;;3.30;3.10;;;;;;;;;;4983722;28;24503;-59
2021/08/19 01:06:14;;;;;;;3.10;2.90;;;;;;;;;;4981413;28;24391;-59
2021/08/19 01:08:39;;;;;;;3.30;3.10;;;;;;;;;;4987161;28;24819;-59
2021/08/19 01:11:04;;;;;;;3.30;3.10;;;;;;;;;;4985538;28;24456;-59
2021/08/19 01:13:29;;;;;;;3.50;3.30;;;;;;;;;;4983798;28;24393;-59
2021/08/19 01:15:55;;;;;;;3.43;3.23;;;;;;;;;;4981698;28;24927;-59
2021/08/19 01:18:20;;;;;;;3.40;3.20;;;;;;;;;;4985173;28;24397;-59
2021/08/19 01:20:45;;;;;;;3.20;3.00;;;;;;;;;;4986547;28;24421;-60
2021/08/19 01:23:10;;;;;;;3.30;3.10;;;;;;;;;;4985306;28;24744;-60
2021/08/19 01:25:35;;;;;;;3.50;3.30;;;;;;;;;;4981322;28;24428;-59
2021/08/19 01:28:00;;;;;;;3.20;3.00;;;;;;;;;;4981816;28;24790;-60
2021/08/19 01:30:26;;;;;;;3.30;3.10;;;;;;;;;;4981889;28;24947;-59
2021/08/19 01:32:51;;;;;;;3.97;3.67;;;;;;;;;;4983108;28;24409;-59
2021/08/19 01:35:22;;;;;;;3.20;3.00;;;;;;;;;;4986908;28;24404;-60
2021/08/19 01:37:48;;;;;;;3.30;3.10;;;;;;;;;;4986573;28;24447;-60
2021/08/19 01:40:14;;;;;;;3.40;3.20;;;;;;;;;;4963808;28;24504;-60
2021/08/19 01:42:40;;;;;;;3.60;3.30;;;;;;;;;;4983254;28;24499;-60
2021/08/19 01:45:05;;;;;;;3.00;2.80;;;;;;;;;;4981202;28;24393;-60
2021/08/19 01:47:31;;;;;;;3.57;3.37;;;;;;;;;;4983030;28;24412;-59
2021/08/19 01:49:56;;;;;;;3.30;3.10;;;;;;;;;;4984578;28;24496;-59
2021/08/19 01:52:21;;;;;;;4.10;3.80;;;;;;;;;;4986425;28;24404;-60
2021/08/19 01:54:46;;;;;;;3.20;3.00;;;;;;;;;;4982738;28;24409;-60
2021/08/19 01:57:11;;;;;;;3.40;3.20;;;;;;;;;;4981044;28;24938;-60
2021/08/19 01:59:36;;;;;;;3.38;3.17;;;;;;;;;;4980980;28;24401;-60
2021/08/19 02:02:02;;;;;;;3.30;3.10;;;;;;;;;;4981152;28;24479;-61
2021/08/19 02:04:27;;;;;;;4.10;3.80;;;;;;;;;;4984532;28;24831;-60
2021/08/19 02:06:52;;;;;;;3.80;3.60;;;;;;;;;;4984191;28;24389;-59
2021/08/19 02:09:18;;;;;;;3.77;3.57;;;;;;;;;;4983230;28;25174;-60
2021/08/19 02:11:44;;;;;;;4.07;3.67;;;;;;;;;;4982172;28;24424;-59
2021/08/19 02:14:09;;;;;;;3.72;3.53;;;;;;;;;;4980959;28;24393;-60
2021/08/19 02:16:34;;;;;;;3.50;3.30;;;;;;;;;;4982465;28;24412;-59
2021/08/19 02:19:00;;;;;;;3.57;3.37;;;;;;;;;;4983019;28;24416;-60
2021/08/19 02:21:25;;;;;;;3.50;3.30;;;;;;;;;;4984287;28;24455;-60
2021/08/19 02:23:50;;;;;;;3.42;3.22;;;;;;;;;;4982337;28;24423;-60
2021/08/19 02:26:15;;;;;;;3.70;3.50;;;;;;;;;;4980627;28;24397;-60
2021/08/19 02:28:40;;;;;;;4.00;3.80;;;;;;;;;;4985715;28;24748;-60
2021/08/19 02:31:06;;;;;;;3.70;3.50;;;;;;;;;;4984150;28;24412;-59
2021/08/19 02:33:31;;;;;;;3.53;3.33;;;;;;;;;;4980243;28;24453;-60
2021/08/19 02:35:56;;;;;;;3.45;3.25;;;;;;;;;;4980037;28;24389;-60
2021/08/19 02:38:21;;;;;;;3.90;3.70;;;;;;;;;;4980208;28;24448;-60
2021/08/19 02:40:46;;;;;;;3.80;3.40;;;;;;;;;;4985344;28;24397;-60
2021/08/19 02:43:12;;;;;;;3.80;3.60;;;;;;;;;;4984184;28;25010;-60
2021/08/19 02:45:37;;;;;;;3.90;3.70;;;;;;;;;;4982101;28;24405;-60
2021/08/19 02:48:02;;;;;;;4.40;4.10;;;;;;;;;;4979962;28;24428;-59
2021/08/19 02:50:28;;;;;;;3.50;3.30;;;;;;;;;;4980059;28;25278;-58
2021/08/19 02:52:54;;;;;;;3.30;3.10;;;;;;;;;;4983310;28;24413;-59
2021/08/19 02:55:19;;;;;;;4.00;3.80;;;;;;;;;;4985325;28;24830;-59
2021/08/19 02:57:46;;;;;;;3.85;3.55;;;;;;;;;;4982898;28;22327;-60
2021/08/19 03:00:11;;;;;;;3.63;3.33;;;;;;;;;;4980110;28;24392;-59
2021/08/19 03:02:36;;;;;;;8.25;7.55;;;;;;;;;;4979829;28;24924;-59
2021/08/19 03:05:02;;;;;;;4.38;4.05;;;;;;;;;;4981398;28;24493;-59
2021/08/19 03:07:27;;;;;;;3.47;3.28;;;;;;;;;;4984793;28;24959;-59
2021/08/19 03:09:52;;;;;;;4.20;3.90;;;;;;;;;;4982984;28;24463;-59
2021/08/19 03:12:17;;;;;;;3.92;3.63;;;;;;;;;;4979835;28;24780;-60
2021/08/19 03:14:43;;;;;;;4.60;4.30;;;;;;;;;;4981529;28;25139;-59
2021/08/19 03:17:08;;;;;;;4.27;3.97;;;;;;;;;;4983183;28;24389;-60
2021/08/19 03:19:34;;;;;;;4.03;3.77;;;;;;;;;;4984747;28;24939;-59
2021/08/19 03:22:00;;;;;;;3.88;3.63;;;;;;;;;;4981170;28;25023;-59
2021/08/19 03:24:26;;;;;;;3.70;3.50;;;;;;;;;;4979528;28;24492;-59
2021/08/19 03:26:51;;;;;;;4.10;3.80;;;;;;;;;;4979484;28;24440;-60
2021/08/19 03:29:16;;;;;;;3.40;3.20;;;;;;;;;;4984484;28;24401;-60
2021/08/19 03:31:41;;;;;;;4.10;3.80;;;;;;;;;;4984459;28;24509;-59
2021/08/19 03:34:06;;;;;;;4.13;3.83;;;;;;;;;;4982808;28;24392;-59
2021/08/19 03:36:32;;;;;;;3.40;3.20;;;;;;;;;;4979452;28;24439;-59
2021/08/19 03:38:57;;;;;;;3.70;3.50;;;;;;;;;;4977008;28;24384;-59
2021/08/19 03:41:22;;;;;;;3.43;3.23;;;;;;;;;;4984805;28;24523;-59
2021/08/19 03:43:47;;;;;;;3.97;3.67;;;;;;;;;;4984607;28;24404;-59
2021/08/19 03:46:13;;;;;;;3.80;3.60;;;;;;;;;;4979391;28;24443;-59
2021/08/19 03:48:38;;;;;;;3.03;2.83;;;;;;;;;;4980038;28;24408;-59
2021/08/19 03:51:03;;;;;;;3.70;3.50;;;;;;;;;;4978927;28;24436;-59
2021/08/19 03:53:29;;;;;;;3.58;3.38;;;;;;;;;;4982646;28;24402;-59
2021/08/19 03:55:55;;;;;;;3.60;3.40;;;;;;;;;;4982720;28;24464;-60
2021/08/19 03:58:20;;;;;;;3.00;2.80;;;;;;;;;;4980858;28;24405;-60
2021/08/19 04:00:47;;;;;;;3.40;3.20;;;;;;;;;;4980814;28;24409;-59
2021/08/19 04:03:13;;;;;;;3.83;3.60;;;;;;;;;;4979275;28;25926;-60
2021/08/19 04:05:38;;;;;;;3.70;3.50;;;;;;;;;;4979144;28;24525;-59
2021/08/19 04:08:03;;;;;;;3.40;3.20;;;;;;;;;;4984090;28;24405;-60
2021/08/19 04:10:28;;;;;;;3.80;3.50;;;;;;;;;;4984283;28;24433;-60
2021/08/19 04:12:54;;;;;;;3.85;3.55;;;;;;;;;;4979053;28;24405;-59
2021/08/19 04:15:19;;;;;;;3.00;2.90;;;;;;;;;;4980882;28;24824;-59
2021/08/19 04:17:44;;;;;;;3.43;3.23;;;;;;;;;;4982123;28;24768;-59
2021/08/19 04:20:09;;;;;;;3.80;3.60;;;;;;;;;;4982559;28;24397;-59
2021/08/19 04:22:34;;;;;;;3.70;3.50;;;;;;;;;;4980971;28;24480;-59
2021/08/19 04:25:00;;;;;;;3.70;3.50;;;;;;;;;;4978736;28;24993;-60
2021/08/19 04:27:25;;;;;;;3.45;3.25;;;;;;;;;;4978723;28;24390;-61
2021/08/19 04:29:50;;;;;;;3.10;2.90;;;;;;;;;;4961036;28;24424;-60
2021/08/19 04:32:15;;;;;;;3.00;2.80;;;;;;;;;;4984409;28;24934;-60
2021/08/19 04:34:41;;;;;;;3.50;3.20;;;;;;;;;;4984197;28;24551;-61
2021/08/19 04:37:06;;;;;;;3.40;3.20;;;;;;;;;;4980373;28;24397;-61
2021/08/19 04:39:31;;;;;;;3.13;2.93;;;;;;;;;;4961262;28;24815;-60
2021/08/19 04:41:56;;;;;;;2.90;2.70;;;;;;;;;;4980388;28;24502;-59
2021/08/19 04:44:21;;;;;;;3.60;3.40;;;;;;;;;;4982620;28;24459;-62
2021/08/19 04:46:46;;;;;;;3.10;2.90;;;;;;;;;;4985709;28;24986;-60
2021/08/19 04:49:12;;;;;;;2.95;2.85;;;;;;;;;;4987455;28;24405;-59
2021/08/19 04:51:37;;;;;;;3.40;2.80;;;;;;;;;;4985884;28;24535;-60
2021/08/19 04:54:03;;;;;;;2.80;2.60;;;;;;;;;;4981798;28;24536;-60
2021/08/19 04:56:30;;;;;;;2.70;2.60;;;;;;;;;;4982342;28;24385;-59
2021/08/19 04:58:55;;;;;;;3.30;3.10;;;;;;;;;;4981877;28;24389;-60
2021/08/19 05:01:20;;;;;;;2.93;2.73;;;;;;;;;;4985641;28;24458;-60
2021/08/19 05:03:45;;;;;;;2.60;2.50;;;;;;;;;;4987131;28;25010;-60
2021/08/19 05:06:10;;;;;;;3.20;2.90;;;;;;;;;;4985211;28;24513;-60
2021/08/19 05:08:36;;;;;;;2.83;2.70;;;;;;;;;;4982010;28;24392;-60
2021/08/19 05:11:01;;;;;;;3.40;3.20;;;;;;;;;;4981569;28;24977;-60
2021/08/19 05:13:26;;;;;;;3.40;3.10;;;;;;;;;;4982398;28;24455;-61
2021/08/19 05:15:51;;;;;;;3.60;3.30;;;;;;;;;;4985507;28;24568;-60
2021/08/19 05:18:16;;;;;;;2.90;2.70;;;;;;;;;;4987005;28;24392;-60
2021/08/19 05:20:42;;;;;;;3.60;3.30;;;;;;;;;;4987147;28;24405;-60
2021/08/19 05:23:08;;;;;;;3.22;3.03;;;;;;;;;;4981450;28;24411;-60
2021/08/19 05:25:33;;;;;;;3.00;2.80;;;;;;;;;;4981730;28;24928;-60
2021/08/19 05:27:58;;;;;;;2.87;2.67;;;;;;;;;;4981450;28;24987;-60
2021/08/19 05:30:23;;;;;;;3.17;2.97;;;;;;;;;;4985291;28;24416;-60
2021/08/19 05:32:48;;;;;;;2.90;2.70;;;;;;;;;;4985315;28;24982;-60
2021/08/19 05:35:13;;;;;;;3.40;3.10;;;;;;;;;;4984990;28;24404;-61
2021/08/19 05:37:38;;;;;;;3.00;2.80;;;;;;;;;;4983228;28;24961;-60
2021/08/19 05:40:04;;;;;;;3.03;2.83;;;;;;;;;;4981000;28;24408;-61
2021/08/19 05:42:29;;;;;;;3.00;2.80;;;;;;;;;;4984971;28;24389;-61
2021/08/19 05:44:54;;;;;;;3.00;2.80;;;;;;;;;;4984896;28;24393;-61
2021/08/19 05:47:19;;;;;;;2.97;2.78;;;;;;;;;;4986435;28;24393;-60
2021/08/19 05:49:46;;;;;;;3.10;2.90;;;;;;;;;;4982990;28;24413;-60
2021/08/19 05:52:12;;;;;;;2.90;2.70;;;;;;;;;;4980654;28;24524;-61
2021/08/19 05:54:37;;;;;;;2.60;2.40;;;;;;;;;;4982571;28;24965;-60
2021/08/19 05:57:03;;;;;;;3.40;3.20;;;;;;;;;;4984228;28;24393;-60
2021/08/19 05:59:28;;;;;;;3.00;2.80;;;;;;;;;;4985017;28;24403;-61
2021/08/19 06:01:53;;;;;;;2.45;2.35;;;;;;;;;;4980812;28;24815;-61
2021/08/19 06:04:18;;;;;;;3.20;3.00;;;;;;;;;;4982624;28;24934;-60
2021/08/19 06:06:44;;;;;;;2.73;2.53;;;;;;;;;;4980887;28;24389;-61
2021/08/19 06:09:09;;;;;;;3.20;3.00;;;;;;;;;;4981820;28;24460;-61
2021/08/19 06:11:34;;;;;;;3.13;2.90;;;;;;;;;;4986152;28;24425;-61
2021/08/19 06:13:59;;;;;;;2.87;2.67;;;;;;;;;;4982313;28;24978;-61
2021/08/19 06:16:25;;;;;;;2.90;2.70;;;;;;;;;;4980693;28;24966;-60
2021/08/19 06:18:50;;;;;;;2.83;2.63;;;;;;;;;;4982135;28;24396;-60
2021/08/19 06:21:15;;;;;;;3.30;3.10;;;;;;;;;;4982480;28;24472;-60
2021/08/19 06:23:40;;;;;;;3.10;2.90;;;;;;;;;;4985687;28;24930;-61
2021/08/19 06:26:07;;;;;;;3.30;3.10;;;;;;;;;;4982507;28;24411;-62
2021/08/19 06:28:33;;;;;;;3.30;3.10;;;;;;;;;;4980648;28;24392;-62
2021/08/19 06:30:58;;;;;;;2.60;2.40;;;;;;;;;;4980503;28;24414;-62
2021/08/19 06:33:23;;;;;;;2.90;2.70;;;;;;;;;;4985724;28;24396;-62
2021/08/19 06:35:48;;;;;;;3.00;2.80;;;;;;;;;;4985671;28;24465;-61
2021/08/19 06:38:14;;;;;;;3.17;2.97;;;;;;;;;;4979948;28;25244;-62
2021/08/19 06:40:39;;;;;;;2.83;2.63;;;;;;;;;;4981876;28;24618;-62
2021/08/19 06:43:04;;;;;;;3.10;2.90;;;;;;;;;;4980207;28;24492;-62
2021/08/19 06:45:30;;;;;;;3.17;2.97;;;;;;;;;;4985750;28;25000;-62
2021/08/19 06:47:55;;;;;;;3.67;3.37;;;;;;;;;;4983576;28;24752;-62
2021/08/19 06:50:20;;;;;;;3.83;3.53;;;;;;;;;;4983508;28;24424;-60
2021/08/19 06:52:45;;;;;;;4.25;3.95;;;;;;;;;;4964126;28;24456;-60
2021/08/19 06:55:11;;;;;;;4.37;4.07;;;;;;;;;;4979924;28;24780;-60
2021/08/19 06:57:36;;;;;;;3.80;3.40;;;;;;;;;;4979824;28;24401;-60
2021/08/19 07:00:04;;;;;;;3.90;3.60;;;;;;;;;;4983304;28;24916;-61
2021/08/19 07:02:29;;;;;;;3.72;3.47;;;;;;;;;;4985824;28;24397;-61
2021/08/19 07:04:54;;;;;;;3.88;3.58;;;;;;;;;;4983222;28;24972;-61
2021/08/19 07:07:19;;;;;;;3.40;3.20;;;;;;;;;;4979500;28;24401;-61
2021/08/19 07:09:44;;;;;;;3.17;2.87;;;;;;;;;;4981452;28;24396;-61
2021/08/19 07:12:10;;;;;;;3.17;2.88;;;;;;;;;;4979855;28;24970;-61
2021/08/19 07:14:35;;;;;;;3.30;3.00;;;;;;;;;;4983639;28;25054;-61
2021/08/19 07:17:00;;;;;;;3.00;2.80;;;;;;;;;;4983256;28;24397;-61
2021/08/19 07:19:25;;;;;;;3.33;3.13;;;;;;;;;;4981213;28;24473;-62
2021/08/19 07:21:52;;;;;;;2.90;2.70;;;;;;;;;;4979654;28;24416;-62
2021/08/19 07:24:17;;;;;;;3.30;3.10;;;;;;;;;;4981270;28;24448;-60
2021/08/19 07:26:42;;;;;;;3.67;3.47;;;;;;;;;;4983230;28;25245;-62
2021/08/19 07:29:07;;;;;;;2.90;2.70;;;;;;;;;;4982791;28;24985;-60
2021/08/19 07:31:35;;;;;;;3.07;2.87;;;;;;;;;;4981346;28;24512;-61
2021/08/19 07:34:00;;;;;;;3.00;2.80;;;;;;;;;;4979590;28;24974;-61
2021/08/19 07:36:25;;;;;;;3.10;2.80;;;;;;;;;;4981158;28;24397;-61
2021/08/19 07:38:51;;;;;;;3.30;3.10;;;;;;;;;;4982898;28;25296;-62
2021/08/19 07:41:16;;;;;;;3.60;3.30;;;;;;;;;;4984545;28;24408;-61
2021/08/19 07:43:41;;;;;;;4.40;3.40;;;;;;;;;;4981053;28;24488;-61
2021/08/19 07:46:06;;;;;;;3.40;3.10;;;;;;;;;;4962125;28;24468;-60
2021/08/19 07:48:31;;;;;;;3.10;2.90;;;;;;;;;;4979190;28;24496;-61
2021/08/19 07:50:56;;;;;;;3.92;3.50;;;;;;;;;;4982831;28;24982;-60
2021/08/19 07:53:22;;;;;;;3.93;3.50;;;;;;;;;;4984019;28;24408;-60
2021/08/19 07:55:47;;;;;;;3.30;3.10;;;;;;;;;;4981027;28;24845;-60
2021/08/19 07:58:12;;;;;;;3.70;3.47;;;;;;;;;;4978988;28;24403;-61
2021/08/19 08:00:38;;;;;;;3.70;3.50;;;;;;;;;;4979304;28;24405;-60
2021/08/19 08:03:03;;;;;;;3.97;3.57;;;;;;;;;;4980687;28;24401;-60
2021/08/19 08:05:29;;;;;;;3.80;3.50;;;;;;;;;;4984381;28;24400;-60
2021/08/19 08:08:01;;;;;;;3.60;3.40;;;;;;;;;;4980461;28;24412;-60
2021/08/19 08:10:27;;;;;;;4.00;3.70;;;;;;;;;;4978708;28;24436;-61
2021/08/19 08:12:52;;;;;;;3.42;3.22;;;;;;;;;;4980889;28;24448;-60
2021/08/19 08:15:17;;;;;;;3.88;3.58;;;;;;;;;;4984488;28;25130;-60
2021/08/19 08:17:42;;;;;;;3.00;2.80;;;;;;;;;;4985330;28;24686;-61
2021/08/19 08:20:09;;;;;;;2.87;2.67;;;;;;;;;;4982495;28;24421;-61
2021/08/19 08:22:35;;;;;;;3.37;3.17;;;;;;;;;;4982910;28;24528;-60
2021/08/19 08:25:01;;;;;;;3.50;3.30;;;;;;;;;;4982805;28;24393;-61
2021/08/19 08:27:26;;;;;;;3.63;3.33;;;;;;;;;;4987947;28;24404;-61
2021/08/19 08:29:54;;;;;;;3.60;3.40;;;;;;;;;;4985834;28;25000;-61
2021/08/19 08:32:19;;;;;;;3.50;3.30;;;;;;;;;;4982241;28;24535;-61
2021/08/19 08:34:44;;;;;;;3.20;3.00;;;;;;;;;;4984110;28;24803;-61
2021/08/19 08:37:10;;;;;;;3.87;3.47;;;;;;;;;;4982393;28;24547;-61
2021/08/19 08:39:37;;;;;;;3.75;3.45;;;;;;;;;;4987616;28;24400;-61
2021/08/19 08:42:05;;;;;;;3.05;2.85;;;;;;;;;;4985787;28;24536;-61
2021/08/19 08:44:30;;;;;;;4.05;3.65;;;;;;;;;;4982299;28;25001;-62
2021/08/19 08:46:56;;;;;;;4.13;3.30;;;;;;;;;;4982566;28;24548;-61
2021/08/19 08:49:22;;;;;;;3.30;3.10;;;;;;;;;;4983114;28;24741;-62
2021/08/19 08:51:51;;;;;;;3.50;3.20;;;;;;;;;;4985311;28;24559;-61
2021/08/19 08:54:16;;;;;;;3.35;3.15;;;;;;;;;;4987279;28;24429;-61
2021/08/19 08:56:42;;;;;;;3.60;3.30;;;;;;;;;;4983984;28;24396;-63
2021/08/19 08:59:07;;;;;;;3.42;3.22;;;;;;;;;;4964462;28;24405;-61
2021/08/19 09:01:32;;;;;;;3.58;3.38;;;;;;;;;;4982197;28;24408;-61
2021/08/19 09:03:57;;;;;;;3.40;3.10;;;;;;;;;;4983952;28;24956;-62
2021/08/19 09:06:35;;;;;;;3.10;2.80;;;;;;;;;;4987153;28;24404;-62
2021/08/19 09:09:12;;;;;;;4.50;2.92;;;;;;;;;;4983596;28;24424;-62
2021/08/19 09:11:41;;;;;;;3.40;3.20;;;;;;;;;;4983859;28;24503;-60
2021/08/19 09:14:13;;;;;;;3.47;3.17;;;;;;;;;;4981758;28;24445;-60
2021/08/19 09:16:40;;;;;;;3.50;3.30;;;;;;;;;;4987086;28;24391;-60
2021/08/19 09:19:09;;;;;;;3.47;3.28;;;;;;;;;;4984870;28;24405;-63
2021/08/19 09:21:44;;;;;;;3.50;3.20;;;;;;;;;;4981570;28;24797;-61
2021/08/19 09:24:13;;;;;;;3.63;3.40;;;;;;;;;;4981603;28;24974;-60
2021/08/19 09:26:38;;;;;;;3.60;3.30;;;;;;;;;;4984780;28;24397;-61
2021/08/19 09:29:13;;;;;;;3.00;2.80;;;;;;;;;;4984346;28;24768;-61
2021/08/19 09:31:38;;;;;;;2.90;2.70;;;;;;;;;;4983252;28;24412;-61
2021/08/19 09:34:03;;;;;;;3.80;3.50;;;;;;;;;;4981452;28;24408;-61
2021/08/19 09:36:30;;;;;;;4.10;3.80;;;;;;;;;;4981492;28;24403;-61
2021/08/19 09:38:55;;;;;;;4.20;3.80;;;;;;;;;;4981063;28;24970;-60
2021/08/19 09:41:21;;;;;;;4.60;4.20;;;;;;;;;;4984788;28;24508;-61
2021/08/19 09:43:53;;;;;;;5.00;4.10;;;;;;;;;;4986618;28;24393;-60
2021/08/19 09:46:37;;;;;;;4.00;3.70;;;;;;;;;;4983006;28;24486;-60
2021/08/19 09:49:22;;;;;;;5.35;4.85;;;;;;;;;;4980809;28;24928;-60
2021/08/19 09:52:08;;;;;;;4.93;4.53;;;;;;;;;;4981866;28;24832;-60
2021/08/19 09:54:38;;;;;;;4.43;4.13;;;;;;;;;;4984602;28;24413;-60
2021/08/19 09:57:04;;;;;;;4.60;4.20;;;;;;;;;;4984750;28;24392;-60
2021/08/19 09:59:39;;;;;;;4.67;4.27;;;;;;;;;;4982604;28;24389;-60
2021/08/19 10:02:05;;;;;;;4.40;4.10;;;;;;;;;;4980663;28;24392;-60
2021/08/19 10:04:30;;;;;;;5.00;4.50;;;;;;;;;;4980784;28;24397;-61
2021/08/19 10:06:56;;;;;;;3.97;3.67;;;;;;;;;;4982871;28;24463;-60
2021/08/19 10:09:22;;;;;;;5.60;3.95;;;;;;;;;;4985961;28;24397;-61
2021/08/19 10:11:48;;;;;;;4.10;3.70;;;;;;;;;;4984584;28;24421;-61
2021/08/19 10:14:14;;;;;;;3.58;3.28;;;;;;;;;;4981034;28;24498;-61
2021/08/19 10:16:40;;;;;;;3.10;2.90;;;;;;;;;;4981027;28;24393;-61
2021/08/19 10:19:10;;;;;;;3.67;3.37;;;;;;;;;;4980389;28;24428;-61
2021/08/19 10:21:36;;;;;;;3.65;3.40;;;;;;;;;;4985891;28;24752;-61
2021/08/19 10:24:03;;;;;;;3.40;3.20;;;;;;;;;;4984071;28;24411;-60
2021/08/19 10:26:28;;;;;;;2.95;2.75;;;;;;;;;;4980540;28;25073;-60
2021/08/19 10:28:55;;;;;;;3.30;3.00;;;;;;;;;;4980572;28;24512;-61
2021/08/19 10:31:38;;;;;;;3.00;2.80;;;;;;;;;;4982227;28;24788;-61
2021/08/19 10:34:03;;;;;;;4.45;3.58;;;;;;;;;;4983856;28;24396;-60
2021/08/19 10:36:28;;;;;;;3.20;2.90;;;;;;;;;;4985904;28;24389;-61
2021/08/19 10:39:13;;;;;;;3.53;2.75;;;;;;;;;;4979645;28;24472;-61
2021/08/19 10:41:39;;;;;;;2.50;2.30;;;;;;;;;;4981801;28;25025;-60
2021/08/19 10:44:05;;;;;;;2.53;2.33;;;;;;;;;;4980005;28;24479;-61
2021/08/19 10:46:41;;;;;;;2.97;2.75;;;;;;;;;;4985492;28;24405;-61
2021/08/19 10:49:06;;;;;;;2.53;2.33;;;;;;;;;;4983837;28;24480;-60
2021/08/19 10:51:32;;;;;;;2.43;2.23;;;;;;;;;;4979912;28;24575;-61
2021/08/19 10:53:57;;;;;;;2.40;2.23;;;;;;;;;;4979933;28;24423;-60
2021/08/19 10:56:44;;;;;;;2.80;2.60;;;;;;;;;;4985365;28;24535;-61
2021/08/19 10:59:29;;;;;;;3.30;3.00;;;;;;;;;;4966125;28;24940;-61
2021/08/19 11:01:54;;;;;;;3.17;2.97;;;;;;;;;;4980289;28;24455;-60
2021/08/19 11:04:38;;;;;;;2.83;2.60;;;;;;;;;;4979985;28;24401;-61
2021/08/19 11:07:05;;;;;;;2.53;2.33;;;;;;;;;;4979238;28;24838;-61
2021/08/19 11:09:30;;;;;;;2.40;2.30;;;;;;;;;;4981367;28;24793;-61
2021/08/19 11:12:02;;;;;;;1.90;1.80;;;;;;;;;;4983753;28;25060;-61
2021/08/19 11:14:27;;;;;;;2.25;2.15;;;;;;;;;;4983433;28;24484;-61
2021/08/19 11:16:57;;;;;;;2.10;2.00;;;;;;;;;;4981135;28;24497;-61
2021/08/19 11:19:23;;;;;;;2.47;2.28;;;;;;;;;;4978588;28;24416;-61
2021/08/19 11:21:49;;;;;;;2.20;2.10;;;;;;;;;;4981301;28;25173;-61
2021/08/19 11:24:15;;;;;;;2.37;2.17;;;;;;;;;;4985005;28;24417;-60
2021/08/19 11:26:40;;;;;;;2.40;2.20;;;;;;;;;;4985144;28;24515;-61
2021/08/19 11:29:05;;;;;;;2.57;2.37;;;;;;;;;;4979436;28;24408;-60
2021/08/19 11:31:31;;;;;;;2.70;2.50;;;;;;;;;;4979335;28;24572;-62
2021/08/19 11:34:00;;;;;;;2.30;2.20;;;;;;;;;;4979423;28;24974;-60
2021/08/19 11:36:25;;;;;;;2.40;2.30;;;;;;;;;;4982786;28;24439;-61
2021/08/19 11:38:57;;;;;;;2.70;2.50;;;;;;;;;;4982925;28;24719;-61
2021/08/19 11:41:23;;;;;;;3.00;2.70;;;;;;;;;;4980995;28;24428;-61
2021/08/19 11:43:49;;;;;;;3.00;2.80;;;;;;;;;;4981136;28;24537;-61
2021/08/19 11:46:24;;;;;;;3.20;3.00;;;;;;;;;;4979579;28;24405;-61
2021/08/19 11:48:56;;;;;;;3.33;3.05;;;;;;;;;;4980807;28;25014;-60
2021/08/19 11:51:27;;;;;;;3.50;3.20;;;;;;;;;;4980387;28;25009;-60
2021/08/19 11:53:56;;;;;;;3.70;3.30;;;;;;;;;;4984682;28;24435;-61
2021/08/19 11:56:24;;;;;;;3.45;3.15;;;;;;;;;;4982774;28;24409;-61
2021/08/19 11:58:52;;;;;;;3.00;2.80;;;;;;;;;;4979731;28;24393;-60
2021/08/19 12:01:17;;;;;;;2.92;2.72;;;;;;;;;;4981093;28;24961;-61
2021/08/19 12:03:43;;;;;;;2.75;2.55;;;;;;;;;;4982736;28;24440;-61
2021/08/19 12:06:10;;;;;;;3.10;2.90;;;;;;;;;;4983032;28;24408;-60
2021/08/19 12:08:37;;;;;;;3.03;2.75;;;;;;;;;;4984474;28;24509;-61
2021/08/19 12:11:03;;;;;;;3.20;3.00;;;;;;;;;;4978779;28;24779;-61
2021/08/19 12:13:28;;;;;;;3.15;2.85;;;;;;;;;;4978940;28;24432;-61
2021/08/19 12:15:54;;;;;;;3.40;3.20;;;;;;;;;;4979092;28;24405;-61
2021/08/19 12:18:23;;;;;;;4.93;3.50;;;;;;;;;;4980745;28;24412;-61
2021/08/19 12:20:49;;;;;;;3.50;3.30;;;;;;;;;;4980575;28;24416;-61
2021/08/19 12:23:26;;;;;;;3.40;3.10;;;;;;;;;;4984447;28;24408;-60
2021/08/19 12:25:51;;;;;;;3.60;3.30;;;;;;;;;;4980918;28;24416;-61
2021/08/19 12:28:17;;;;;;;3.65;3.38;;;;;;;;;;4978692;28;24415;-61
2021/08/19 12:30:59;;;;;;;3.50;3.20;;;;;;;;;;4980537;28;24560;-60
2021/08/19 12:33:31;;;;;;;4.40;3.80;;;;;;;;;;4978690;28;24456;-61
2021/08/19 12:36:18;;;;;;;4.50;3.10;;;;;;;;;;4979071;28;24408;-60
2021/08/19 12:38:44;;;;;;;3.88;3.58;;;;;;;;;;4983823;28;24428;-60
2021/08/19 12:41:10;;;;;;;3.30;3.10;;;;;;;;;;4982189;28;24401;-60
2021/08/19 12:43:35;;;;;;;3.80;3.60;;;;;;;;;;4963029;28;25021;-60
2021/08/19 12:46:07;;;;;;;3.40;3.20;;;;;;;;;;4978598;28;24500;-60
2021/08/19 12:48:34;;;;;;;4.03;3.72;;;;;;;;;;4978366;28;24503;-60
2021/08/19 12:51:18;;;;;;;3.80;3.50;;;;;;;;;;4979975;28;24443;-61
2021/08/19 12:54:03;;;;;;;4.40;4.10;;;;;;;;;;4983471;28;24986;-61
2021/08/19 12:56:28;;;;;;;3.80;3.50;;;;;;;;;;4980505;28;24435;-61
2021/08/19 12:58:53;;;;;;;4.45;4.15;;;;;;;;;;4978597;28;24389;-60
2021/08/19 13:01:18;;;;;;;5.10;4.70;;;;;;;;;;4979196;28;24392;-61
2021/08/19 13:03:43;;;;;;;4.70;4.30;;;;;;;;;;4964695;28;24443;-60
2021/08/19 13:06:09;;;;;;;3.70;3.40;;;;;;;;;;4987740;28;24481;-60
2021/08/19 13:08:34;;;;;;;4.25;3.85;;;;;;;;;;4985423;28;24424;-60
2021/08/19 13:10:59;;;;;;;3.97;3.67;;;;;;;;;;4981931;28;24428;-60
2021/08/19 13:13:24;;;;;;;4.55;4.25;;;;;;;;;;4981964;28;24394;-60
2021/08/19 13:15:49;;;;;;;4.10;3.80;;;;;;;;;;4983120;28;24868;-61
2021/08/19 13:18:14;;;;;;;4.40;4.00;;;;;;;;;;4984512;28;24520;-59
2021/08/19 13:20:39;;;;;;;3.20;2.90;;;;;;;;;;4986505;28;24420;-60
2021/08/19 13:23:05;;;;;;;3.60;3.40;;;;;;;;;;4985104;28;24408;-61
2021/08/19 13:25:30;;;;;;;3.70;3.40;;;;;;;;;;4981837;28;24823;-61
2021/08/19 13:27:56;;;;;;;3.20;3.00;;;;;;;;;;4981553;28;24456;-60
2021/08/19 13:30:21;;;;;;;3.30;3.00;;;;;;;;;;4983062;28;24405;-63
2021/08/19 13:32:47;;;;;;;3.70;3.20;;;;;;;;;;4986314;28;24394;-62
2021/08/19 13:35:13;;;;;;;3.08;2.78;;;;;;;;;;4983494;28;24424;-61
2021/08/19 13:37:38;;;;;;;3.03;2.80;;;;;;;;;;4983396;28;25387;-61
2021/08/19 13:40:03;;;;;;;3.20;3.00;;;;;;;;;;4981157;28;24443;-61
2021/08/19 13:42:28;;;;;;;2.55;2.40;;;;;;;;;;4981602;28;24404;-60
2021/08/19 13:44:54;;;;;;;2.87;2.60;;;;;;;;;;4982643;28;24806;-61
2021/08/19 13:47:19;;;;;;;3.50;2.93;;;;;;;;;;4986722;28;24405;-61
2021/08/19 13:49:44;;;;;;;2.80;2.60;;;;;;;;;;4984113;28;24927;-60
2021/08/19 13:52:10;;;;;;;3.30;3.00;;;;;;;;;;4981270;28;25038;-61
2021/08/19 13:54:35;;;;;;;2.90;2.60;;;;;;;;;;4980810;28;24496;-60
2021/08/19 13:57:01;;;;;;;2.80;2.60;;;;;;;;;;4982990;28;24392;-61
2021/08/19 13:59:26;;;;;;;3.47;3.17;;;;;;;;;;4986289;28;24495;-60
2021/08/19 14:01:52;;;;;;;3.60;3.30;;;;;;;;;;4982288;28;24488;-61
2021/08/19 14:04:17;;;;;;;3.37;3.17;;;;;;;;;;4981142;28;24533;-61
2021/08/19 14:06:42;;;;;;;3.33;3.03;;;;;;;;;;4982260;28;24415;-61
2021/08/19 14:09:07;;;;;;;3.70;3.40;;;;;;;;;;4982552;28;24445;-61
2021/08/19 14:11:33;;;;;;;3.70;3.50;;;;;;;;;;4985833;28;24969;-61
2021/08/19 14:13:59;;;;;;;4.00;3.70;;;;;;;;;;4982794;28;24648;-61
2021/08/19 14:16:24;;;;;;;3.72;3.42;;;;;;;;;;4980205;28;24470;-61
2021/08/19 14:18:50;;;;;;;3.78;3.47;;;;;;;;;;4980525;28;24396;-61
2021/08/19 14:21:15;;;;;;;3.70;3.40;;;;;;;;;;4985379;28;24405;-60
2021/08/19 14:23:40;;;;;;;3.53;3.22;;;;;;;;;;4985588;28;24424;-61
2021/08/19 14:26:07;;;;;;;3.67;3.37;;;;;;;;;;4980595;28;24396;-61
2021/08/19 14:28:32;;;;;;;6.32;4.20;;;;;;;;;;4980116;28;24970;-62
2021/08/19 14:30:57;;;;;;;3.38;3.08;;;;;;;;;;4979922;28;24433;-61
2021/08/19 14:33:23;;;;;;;3.23;3.03;;;;;;;;;;4983496;28;24450;-61
2021/08/19 14:35:48;;;;;;;3.45;3.15;;;;;;;;;;4985468;28;24425;-61
2021/08/19 14:38:13;;;;;;;3.20;3.00;;;;;;;;;;4981965;28;24440;-61